Time;durP1;ratioP1;P1;durP2;ratioP2;P2;SDS_P1;SDS_P2;PMS_P1;PMS_P2;Temp;Humidity;BMP_temperature;BMP_pressure;BME280_temperature;BME280_humidity;BME280_pressure;Samples;Min_cycle;Max_cycle;Signal;HPM_P1;HPM_P2
2021/12/10 00:01:48;;;;;;;;;23.00;21.67;;;;;;;;5136276;27;12166;-77
2021/12/10 00:04:14;;;;;;;;;20.00;18.00;;;;;;;;5135814;27;11696;-77
2021/12/10 00:06:44;;;;;;;;;24.67;21.00;;;;;;;;5136265;27;12232;-76
2021/12/10 00:09:14;;;;;;;;;17.00;14.33;;;;;;;;5135890;27;11733;-78
2021/12/10 00:12:03;;;;;;;;;15.33;13.33;;;;;;;;5136373;27;13550;-78
2021/12/10 00:14:31;;;;;;;;;14.00;14.00;;;;;;;;5135433;27;10700;-78
2021/12/10 00:16:57;;;;;;;;;20.67;16.00;;;;;;;;5135482;27;12784;-78
2021/12/10 00:21:49;;;;;;;;;16.33;15.33;;;;;;;;5135028;27;11456;-78
2021/12/10 00:24:16;;;;;;;;;14.00;13.00;;;;;;;;5135991;27;8760;-78
2021/12/10 00:26:42;;;;;;;;;16.00;14.67;;;;;;;;5135675;27;11455;-78
2021/12/10 00:29:08;;;;;;;;;13.33;13.33;;;;;;;;5134909;27;12242;-76
2021/12/10 00:34:10;;;;;;;;;15.33;11.00;;;;;;;;5135452;27;11404;-77
2021/12/10 00:36:36;;;;;;;;;11.67;10.00;;;;;;;;5136069;27;8968;-75
2021/12/10 00:39:04;;;;;;;;;12.33;8.67;;;;;;;;5135432;27;10401;-76
2021/12/10 00:41:29;;;;;;;;;10.67;10.67;;;;;;;;5121361;27;21556;-76
2021/12/10 00:43:55;;;;;;;;;10.33;10.00;;;;;;;;5121538;28;21411;-77
2021/12/10 00:46:20;;;;;;;;;13.00;11.00;;;;;;;;5121916;28;8886;-75
2021/12/10 00:48:46;;;;;;;;;10.33;10.00;;;;;;;;5121305;28;10581;-77
2021/12/10 00:51:13;;;;;;;;;13.33;10.00;;;;;;;;5121802;28;10354;-76
2021/12/10 00:53:38;;;;;;;;;13.00;11.00;;;;;;;;5121344;28;8772;-75
2021/12/10 00:56:05;;;;;;;;;11.00;10.00;;;;;;;;5121609;28;9509;-75
2021/12/10 00:58:30;;;;;;;;;9.33;7.67;;;;;;;;5121281;28;8803;-74
2021/12/10 01:01:00;;;;;;;;;15.33;10.33;;;;;;;;5120395;28;22146;-75
2021/12/10 01:03:31;;;;;;;;;10.33;10.00;;;;;;;;5121156;28;22575;-72
2021/12/10 01:06:00;;;;;;;;;9.33;9.33;;;;;;;;5121492;28;11618;-74
2021/12/10 01:08:26;;;;;;;;;10.67;10.33;;;;;;;;5121635;28;23567;-74
2021/12/10 01:10:54;;;;;;;;;13.00;11.00;;;;;;;;5121341;28;22209;-73
2021/12/10 01:13:26;;;;;;;;;9.33;9.33;;;;;;;;5121151;28;12701;-74
2021/12/10 01:16:16;;;;;;;;;10.00;9.33;;;;;;;;5120872;28;22576;-74
2021/12/10 01:24:32;;;;;;;;;11.00;11.00;;;;;;;;5120675;28;22173;-74
2021/12/10 01:27:02;;;;;;;;;10.00;10.00;;;;;;;;5120412;28;22797;-74
2021/12/10 01:29:31;;;;;;;;;10.67;7.33;;;;;;;;5120387;28;8800;-74
2021/12/10 01:31:57;;;;;;;;;14.67;10.67;;;;;;;;5120720;28;22640;-74
2021/12/10 01:34:23;;;;;;;;;14.00;10.33;;;;;;;;5120428;28;21591;-74
2021/12/10 01:36:48;;;;;;;;;10.00;10.00;;;;;;;;5121013;28;8769;-74
2021/12/10 01:39:17;;;;;;;;;16.33;10.00;;;;;;;;5120760;28;11396;-74
2021/12/10 01:41:53;;;;;;;;;14.67;12.67;;;;;;;;5102362;28;8801;-74
2021/12/10 01:44:27;;;;;;;;;14.00;11.00;;;;;;;;5120193;28;11815;-74
2021/12/10 01:46:52;;;;;;;;;8.00;8.00;;;;;;;;5120486;28;10914;-73
2021/12/10 01:49:17;;;;;;;;;11.00;9.33;;;;;;;;5120237;28;22685;-74
2021/12/10 01:51:43;;;;;;;;;14.67;10.67;;;;;;;;5119347;28;21703;-73
2021/12/10 01:54:13;;;;;;;;;13.00;11.67;;;;;;;;5119788;28;21751;-73
2021/12/10 01:56:40;;;;;;;;;10.00;10.00;;;;;;;;5101678;28;12251;-73
2021/12/10 01:59:07;;;;;;;;;16.00;10.00;;;;;;;;5102484;28;13331;-75
2021/12/10 02:01:38;;;;;;;;;9.33;9.00;;;;;;;;5121038;28;8757;-75
2021/12/10 02:04:04;;;;;;;;;15.00;11.33;;;;;;;;5101626;28;24626;-74
2021/12/10 02:06:30;;;;;;;;;13.00;12.67;;;;;;;;5120304;28;23667;-74
2021/12/10 02:08:55;;;;;;;;;14.33;12.33;;;;;;;;5120943;28;11370;-74
2021/12/10 02:11:20;;;;;;;;;10.00;10.00;;;;;;;;5120257;28;11728;-74
2021/12/10 02:13:46;;;;;;;;;14.33;13.00;;;;;;;;5120787;28;11419;-74
2021/12/10 02:16:12;;;;;;;;;12.33;10.00;;;;;;;;5120500;28;10659;-74
2021/12/10 02:18:37;;;;;;;;;14.33;14.33;;;;;;;;5120342;28;8800;-74
2021/12/10 02:21:03;;;;;;;;;25.67;16.00;;;;;;;;5120054;28;11441;-74
2021/12/10 02:23:29;;;;;;;;;11.33;11.33;;;;;;;;5101167;28;13499;-74
2021/12/10 02:25:55;;;;;;;;;12.00;12.00;;;;;;;;5120721;28;13344;-73
2021/12/10 02:28:21;;;;;;;;;13.67;13.67;;;;;;;;5119827;28;12786;-73
2021/12/10 02:30:46;;;;;;;;;18.33;15.33;;;;;;;;5120221;28;11575;-73
2021/12/10 02:33:12;;;;;;;;;9.33;8.33;;;;;;;;5120180;28;11807;-74
2021/12/10 02:35:37;;;;;;;;;12.67;12.67;;;;;;;;5119361;28;22332;-73
2021/12/10 02:38:03;;;;;;;;;15.33;10.67;;;;;;;;5119109;28;22724;-73
2021/12/10 02:40:30;;;;;;;;;13.00;13.00;;;;;;;;5119875;28;10402;-74
2021/12/10 02:42:56;;;;;;;;;12.67;12.67;;;;;;;;5120236;28;11707;-73
2021/12/10 02:45:23;;;;;;;;;15.00;13.00;;;;;;;;5119900;28;12670;-74
2021/12/10 02:47:49;;;;;;;;;15.33;13.67;;;;;;;;5119618;28;11625;-75
2021/12/10 02:50:15;;;;;;;;;22.00;11.33;;;;;;;;5120450;28;9806;-75
2021/12/10 02:52:41;;;;;;;;;12.67;12.67;;;;;;;;5119984;28;13353;-75
2021/12/10 02:55:10;;;;;;;;;14.00;10.00;;;;;;;;5119959;28;14816;-74
2021/12/10 02:57:36;;;;;;;;;16.00;15.33;;;;;;;;5119629;28;11934;-73
2021/12/10 03:00:04;;;;;;;;;16.00;13.67;;;;;;;;5119720;28;11614;-74
2021/12/10 03:02:29;;;;;;;;;16.67;13.67;;;;;;;;5120209;28;10116;-74
2021/12/10 03:04:55;;;;;;;;;19.00;15.00;;;;;;;;5119710;28;8816;-74
2021/12/10 03:07:22;;;;;;;;;19.00;15.00;;;;;;;;5119796;28;11561;-74
2021/12/10 03:09:49;;;;;;;;;15.67;12.67;;;;;;;;5119860;28;8799;-74
2021/12/10 03:12:15;;;;;;;;;15.00;13.67;;;;;;;;5119839;28;11881;-74
2021/12/10 03:14:44;;;;;;;;;10.67;9.67;;;;;;;;5119946;28;9801;-74
2021/12/10 03:17:12;;;;;;;;;13.00;10.00;;;;;;;;5119920;28;21873;-74
2021/12/10 03:19:38;;;;;;;;;10.67;10.00;;;;;;;;5119018;28;21497;-74
2021/12/10 03:22:06;;;;;;;;;14.33;12.00;;;;;;;;5100747;28;9130;-74
2021/12/10 03:24:31;;;;;;;;;13.00;10.00;;;;;;;;5119330;28;10781;-74
2021/12/10 03:26:58;;;;;;;;;13.67;12.00;;;;;;;;5119658;28;10733;-74
2021/12/10 03:29:25;;;;;;;;;10.00;9.00;;;;;;;;5118444;28;9849;-74
2021/12/10 03:31:51;;;;;;;;;11.33;9.00;;;;;;;;5119604;28;21569;-75
2021/12/10 03:34:16;;;;;;;;;9.00;9.00;;;;;;;;5119099;28;9371;-74
2021/12/10 03:36:45;;;;;;;;;16.67;10.00;;;;;;;;5119375;28;16249;-74
2021/12/10 03:39:12;;;;;;;;;9.00;9.00;;;;;;;;5118877;28;22527;-74
2021/12/10 03:41:37;;;;;;;;;12.33;12.00;;;;;;;;5118574;28;22309;-75
2021/12/10 03:44:03;;;;;;;;;12.33;10.00;;;;;;;;5118393;28;23559;-74
2021/12/10 03:46:29;;;;;;;;;11.33;11.33;;;;;;;;5117772;28;8843;-76
2021/12/10 03:48:54;;;;;;;;;8.33;7.00;;;;;;;;5118319;28;11612;-76
2021/12/10 03:51:22;;;;;;;;;9.33;8.33;;;;;;;;5116914;28;22186;-77
2021/12/10 03:53:47;;;;;;;;;9.00;9.00;;;;;;;;5119299;28;11912;-78
2021/12/10 03:56:16;;;;;;;;;9.00;9.00;;;;;;;;5119403;28;10462;-78
2021/12/10 03:58:42;;;;;;;;;9.67;9.67;;;;;;;;5101017;28;8838;-78
2021/12/10 04:01:08;;;;;;;;;12.67;12.67;;;;;;;;5119156;28;8765;-78
2021/12/10 04:03:34;;;;;;;;;9.33;9.00;;;;;;;;5099689;28;26298;-77
2021/12/10 04:05:59;;;;;;;;;10.67;10.00;;;;;;;;5119365;28;22168;-75
2021/12/10 04:08:25;;;;;;;;;10.00;10.00;;;;;;;;5118914;28;22426;-75
2021/12/10 04:10:51;;;;;;;;;15.00;10.00;;;;;;;;5119203;28;9476;-76
2021/12/10 04:13:17;;;;;;;;;15.67;12.00;;;;;;;;5119346;28;8777;-76
2021/12/10 04:15:42;;;;;;;;;18.00;15.00;;;;;;;;5120868;28;9668;-76
2021/12/10 04:18:08;;;;;;;;;13.00;10.00;;;;;;;;5122202;28;10351;-76
2021/12/10 04:20:34;;;;;;;;;11.33;11.33;;;;;;;;5122167;28;8783;-77
2021/12/10 04:23:03;;;;;;;;;10.00;10.00;;;;;;;;5121937;28;11344;-76
2021/12/10 04:25:28;;;;;;;;;14.33;12.00;;;;;;;;5103420;28;11970;-77
2021/12/10 04:27:55;;;;;;;;;14.33;12.33;;;;;;;;5120937;28;10538;-76
2021/12/10 04:30:21;;;;;;;;;10.67;10.67;;;;;;;;5122736;28;8918;-77
2021/12/10 04:32:47;;;;;;;;;12.33;12.33;;;;;;;;5121801;28;11616;-76
2021/12/10 04:35:14;;;;;;;;;12.25;10.50;;;;;;;;5121753;28;11535;-77
2021/12/10 04:37:40;;;;;;;;;11.00;11.00;;;;;;;;5122298;28;9636;-76
2021/12/10 04:40:07;;;;;;;;;12.25;12.00;;;;;;;;5122031;28;12233;-75
2021/12/10 04:42:33;;;;;;;;;15.00;9.50;;;;;;;;5121029;28;10608;-76
2021/12/10 04:44:59;;;;;;;;;16.00;12.50;;;;;;;;5120904;28;22656;-75
2021/12/10 04:47:25;;;;;;;;;22.00;19.25;;;;;;;;5121866;28;22797;-77
2021/12/10 04:49:51;;;;;;;;;9.50;9.50;;;;;;;;5121771;28;13298;-75
2021/12/10 04:52:16;;;;;;;;;13.00;12.50;;;;;;;;5121560;28;22793;-75
2021/12/10 04:54:41;;;;;;;;;14.00;14.00;;;;;;;;5121656;28;22374;-75
2021/12/10 04:57:08;;;;;;;;;13.25;12.00;;;;;;;;5121575;28;11456;-77
2021/12/10 04:59:35;;;;;;;;;15.75;11.00;;;;;;;;5120951;28;10428;-76
2021/12/10 05:02:04;;;;;;;;;11.00;10.00;;;;;;;;5121769;28;9609;-78
2021/12/10 05:04:30;;;;;;;;;14.75;12.75;;;;;;;;5122134;28;11536;-79
2021/12/10 05:06:55;;;;;;;;;16.50;13.75;;;;;;;;5122126;28;11428;-79
2021/12/10 05:09:21;;;;;;;;;16.75;14.00;;;;;;;;5121623;28;11586;-77
2021/12/10 05:11:47;;;;;;;;;15.75;15.25;;;;;;;;5121315;28;12172;-77
2021/12/10 05:14:13;;;;;;;;;15.00;15.00;;;;;;;;5102420;28;13556;-77
2021/12/10 05:16:42;;;;;;;;;16.00;15.00;;;;;;;;5120876;28;8803;-76
2021/12/10 05:19:09;;;;;;;;;17.25;15.75;;;;;;;;5121134;28;8968;-76
2021/12/10 05:21:35;;;;;;;;;29.75;16.00;;;;;;;;5121523;28;11694;-77
2021/12/10 05:24:01;;;;;;;;;16.00;16.00;;;;;;;;5121110;28;13311;-77
2021/12/10 05:26:27;;;;;;;;;19.50;16.50;;;;;;;;5121004;27;10315;-78
2021/12/10 05:28:52;;;;;;;;;23.50;17.50;;;;;;;;5120578;28;11375;-76
2021/12/10 05:31:17;;;;;;;;;26.50;18.25;;;;;;;;5120814;28;10407;-76
2021/12/10 05:33:43;;;;;;;;;16.50;16.00;;;;;;;;5120384;28;11547;-76
2021/12/10 05:36:08;;;;;;;;;17.50;17.00;;;;;;;;5101956;28;15822;-75
2021/12/10 05:38:34;;;;;;;;;18.00;15.25;;;;;;;;5102770;28;10425;-75
2021/12/10 05:41:00;;;;;;;;;22.50;14.00;;;;;;;;5102443;28;12168;-75
2021/12/10 05:43:26;;;;;;;;;15.50;15.50;;;;;;;;5121173;28;13653;-75
2021/12/10 05:45:51;;;;;;;;;17.50;15.50;;;;;;;;5119964;28;13394;-76
2021/12/10 05:48:17;;;;;;;;;21.00;16.00;;;;;;;;5120496;28;8834;-76
2021/12/10 05:50:43;;;;;;;;;14.00;14.00;;;;;;;;5120663;28;13206;-77
2021/12/10 05:53:08;;;;;;;;;12.50;10.50;;;;;;;;5121065;28;10815;-77
2021/12/10 05:55:35;;;;;;;;;12.75;9.25;;;;;;;;5121066;28;11379;-77
2021/12/10 05:58:00;;;;;;;;;12.75;9.25;;;;;;;;5120072;28;22634;-76
2021/12/10 06:00:29;;;;;;;;;18.50;12.00;;;;;;;;5120364;28;8773;-78
2021/12/10 06:02:54;;;;;;;;;10.50;9.00;;;;;;;;5120415;28;21509;-78
2021/12/10 06:05:20;;;;;;;;;22.50;12.75;;;;;;;;5120274;28;21548;-75
2021/12/10 06:07:46;;;;;;;;;11.00;10.00;;;;;;;;5119612;28;22894;-79
2021/12/10 06:10:12;;;;;;;;;12.50;9.25;;;;;;;;5120075;28;13276;-76
2021/12/10 06:12:37;;;;;;;;;8.50;8.50;;;;;;;;5119280;28;21534;-77
2021/12/10 06:15:03;;;;;;;;;11.25;10.00;;;;;;;;5101653;28;23541;-78
2021/12/10 06:17:28;;;;;;;;;12.25;9.25;;;;;;;;5101573;28;23473;-79
2021/12/10 06:19:54;;;;;;;;;9.50;9.25;;;;;;;;5119887;28;21389;-76
2021/12/10 06:22:19;;;;;;;;;16.75;13.25;;;;;;;;5120097;28;17811;-74
2021/12/10 06:24:45;;;;;;;;;10.75;9.50;;;;;;;;5120095;28;22457;-74
2021/12/10 06:27:10;;;;;;;;;17.00;14.50;;;;;;;;5120037;28;21475;-72
2021/12/10 06:29:36;;;;;;;;;10.00;10.00;;;;;;;;5119906;28;21672;-85
2021/12/10 06:32:02;;;;;;;;;12.25;9.00;;;;;;;;5120599;28;11711;-85
2021/12/10 06:34:28;;;;;;;;;15.75;12.00;;;;;;;;5121799;28;21493;-83
2021/12/10 06:36:53;;;;;;;;;11.00;10.50;;;;;;;;5121538;28;21713;-82
2021/12/10 06:39:20;;;;;;;;;15.75;12.00;;;;;;;;5120469;27;11568;-80
2021/12/10 06:41:54;;;;;;;;;14.00;13.25;;;;;;;;5120071;28;11836;-79
2021/12/10 06:44:20;;;;;;;;;14.00;14.00;;;;;;;;5120473;28;11459;-80
2021/12/10 06:46:46;;;;;;;;;15.75;13.00;;;;;;;;5121472;28;10380;-79
2021/12/10 06:49:13;;;;;;;;;15.50;12.00;;;;;;;;5120572;28;10693;-80
2021/12/10 06:51:38;;;;;;;;;18.00;12.50;;;;;;;;5120746;28;9674;-75
2021/12/10 06:54:03;;;;;;;;;13.50;12.00;;;;;;;;5120440;28;11680;-82
2021/12/10 06:56:31;;;;;;;;;9.50;9.25;;;;;;;;5120449;28;13272;-83
2021/12/10 06:58:56;;;;;;;;;10.50;9.25;;;;;;;;5119986;28;23641;-79
2021/12/10 07:01:24;;;;;;;;;18.00;12.50;;;;;;;;5101515;28;18316;-80
2021/12/10 07:03:50;;;;;;;;;17.00;11.50;;;;;;;;5119342;28;21854;-77
2021/12/10 07:06:16;;;;;;;;;21.75;13.50;;;;;;;;5120180;28;8760;-74
2021/12/10 07:08:43;;;;;;;;;15.50;13.00;;;;;;;;5119903;28;12494;-76
2021/12/10 07:11:10;;;;;;;;;12.50;12.50;;;;;;;;5119686;28;13468;-74
2021/12/10 07:13:36;;;;;;;;;12.75;11.00;;;;;;;;5118059;28;11514;-77
2021/12/10 07:16:02;;;;;;;;;12.00;12.00;;;;;;;;5118256;28;10355;-74
2021/12/10 07:18:28;;;;;;;;;19.25;14.25;;;;;;;;5099216;28;11757;-74
2021/12/10 07:20:53;;;;;;;;;13.50;13.00;;;;;;;;5118318;28;11912;-76
2021/12/10 07:23:20;;;;;;;;;12.00;12.00;;;;;;;;5117753;28;11363;-77
2021/12/10 07:25:46;;;;;;;;;10.00;9.67;;;;;;;;5099362;28;12628;-78
2021/12/10 07:28:13;;;;;;;;;15.67;14.33;;;;;;;;5117056;28;21465;-76
2021/12/10 07:30:38;;;;;;;;;12.67;11.33;;;;;;;;5117514;28;21484;-77
2021/12/10 07:33:04;;;;;;;;;18.33;12.67;;;;;;;;5117980;28;9047;-74
2021/12/10 07:35:29;;;;;;;;;18.00;16.00;;;;;;;;5117812;28;12002;-79
2021/12/10 07:37:55;;;;;;;;;18.00;15.33;;;;;;;;5115738;28;10329;-79
2021/12/10 07:40:22;;;;;;;;;19.67;14.33;;;;;;;;5118415;28;8866;-80
2021/12/10 07:42:48;;;;;;;;;12.33;10.67;;;;;;;;5117685;28;10801;-79
2021/12/10 07:45:13;;;;;;;;;16.00;16.00;;;;;;;;5099846;28;12000;-78
2021/12/10 07:47:39;;;;;;;;;22.67;22.00;;;;;;;;5118227;28;11431;-78
2021/12/10 07:50:07;;;;;;;;;15.33;15.33;;;;;;;;5032415;28;13303;-80
2021/12/10 07:52:34;;;;;;;;;24.67;18.00;;;;;;;;5061634;28;13469;-81
2021/12/10 07:55:00;;;;;;;;;16.67;16.33;;;;;;;;5078205;28;14090;-83
2021/12/10 07:57:27;;;;;;;;;25.00;21.67;;;;;;;;5080584;28;13921;-74
2021/12/10 07:59:52;;;;;;;;;19.00;15.33;;;;;;;;5079845;28;13343;-78
2021/12/10 08:02:19;;;;;;;;;19.00;15.33;;;;;;;;5080300;28;13191;-78
2021/12/10 08:04:44;;;;;;;;;17.33;15.00;;;;;;;;5082194;28;9600;-78
2021/12/10 08:07:12;;;;;;;;;22.67;15.67;;;;;;;;5081506;28;11647;-80
2021/12/10 08:09:38;;;;;;;;;16.00;12.33;;;;;;;;5082722;28;13342;-79
2021/12/10 08:12:03;;;;;;;;;16.67;13.67;;;;;;;;5082299;28;13274;-79
2021/12/10 08:14:29;;;;;;;;;16.33;13.00;;;;;;;;5082018;28;10498;-79
2021/12/10 08:16:54;;;;;;;;;14.33;14.33;;;;;;;;5081441;28;8780;-78
2021/12/10 08:19:19;;;;;;;;;16.00;14.00;;;;;;;;5081419;28;11354;-72
2021/12/10 08:21:45;;;;;;;;;24.33;20.00;;;;;;;;5081325;28;12753;-73
2021/12/10 08:24:10;;;;;;;;;22.67;21.00;;;;;;;;5081225;28;12193;-73
2021/12/10 08:26:36;;;;;;;;;17.67;16.67;;;;;;;;5081332;28;10601;-74
2021/12/10 08:29:04;;;;;;;;;26.00;21.67;;;;;;;;5079912;28;14685;-74
2021/12/10 08:31:29;;;;;;;;;27.00;26.00;;;;;;;;5081349;28;12491;-72
2021/12/10 08:33:55;;;;;;;;;22.67;18.00;;;;;;;;5080671;28;11503;-73
2021/12/10 08:36:22;;;;;;;;;22.00;22.00;;;;;;;;5080936;28;11618;-72
2021/12/10 08:38:48;;;;;;;;;21.00;19.00;;;;;;;;5081671;28;11540;-73
2021/12/10 08:41:16;;;;;;;;;29.00;24.33;;;;;;;;5081550;28;9597;-74
2021/12/10 08:43:41;;;;;;;;;29.00;22.00;;;;;;;;5080601;28;12336;-72
2021/12/10 08:46:07;;;;;;;;;28.00;20.33;;;;;;;;5080411;28;9126;-72
2021/12/10 08:48:33;;;;;;;;;22.00;19.33;;;;;;;;5079664;28;11463;-72
2021/12/10 08:51:00;;;;;;;;;19.00;17.33;;;;;;;;5079505;28;9095;-72
2021/12/10 08:53:26;;;;;;;;;22.33;17.00;;;;;;;;5079345;28;10479;-72
2021/12/10 08:55:53;;;;;;;;;11.67;9.00;;;;;;;;5080119;28;13277;-72
2021/12/10 08:58:20;;;;;;;;;20.00;16.00;;;;;;;;5079745;28;22643;-71
2021/12/10 09:00:48;;;;;;;;;20.67;16.33;;;;;;;;5079703;28;22970;-71
2021/12/10 09:03:13;;;;;;;;;3.67;1.00;;;;;;;;5081124;28;8800;-70
2021/12/10 09:05:39;;;;;;;;;22.00;17.00;;;;;;;;5079163;28;22437;-71
2021/12/10 09:08:05;;;;;;;;;18.33;12.33;;;;;;;;5079897;28;23908;-71
2021/12/10 09:10:35;;;;;;;;;25.33;21.33;;;;;;;;5080060;28;13564;-72
2021/12/10 09:13:01;;;;;;;;;27.33;19.67;;;;;;;;5080583;28;10873;-73
2021/12/10 09:15:28;;;;;;;;;22.33;19.33;;;;;;;;5079791;28;12374;-74
2021/12/10 09:17:57;;;;;;;;;22.67;19.33;;;;;;;;5080430;28;11466;-73
2021/12/10 09:20:26;;;;;;;;;22.33;19.33;;;;;;;;5079955;28;8792;-74
2021/12/10 09:22:53;;;;;;;;;22.00;18.33;;;;;;;;5080276;28;8919;-74
2021/12/10 09:25:18;;;;;;;;;16.00;16.00;;;;;;;;5081060;28;9711;-73
2021/12/10 09:27:43;;;;;;;;;22.00;19.67;;;;;;;;5080235;28;13226;-74
2021/12/10 09:30:11;;;;;;;;;20.00;18.33;;;;;;;;5080261;28;13204;-73
2021/12/10 09:32:37;;;;;;;;;20.00;16.33;;;;;;;;5061622;28;12655;-72
2021/12/10 09:35:05;;;;;;;;;21.00;16.00;;;;;;;;5078744;28;8797;-74
2021/12/10 09:37:31;;;;;;;;;21.67;17.67;;;;;;;;5078864;28;11460;-72
2021/12/10 09:39:57;;;;;;;;;19.67;19.00;;;;;;;;5079787;28;10328;-74
2021/12/10 09:42:22;;;;;;;;;23.33;21.67;;;;;;;;5079452;28;13370;-73
2021/12/10 09:44:49;;;;;;;;;23.00;23.00;;;;;;;;5025210;28;13597;-72
2021/12/10 09:47:15;;;;;;;;;20.67;19.67;;;;;;;;5080032;28;10453;-72
2021/12/10 09:49:46;;;;;;;;;26.00;20.00;;;;;;;;5078808;28;12238;-72
2021/12/10 09:52:12;;;;;;;;;25.33;17.00;;;;;;;;5078129;28;12558;-73
2021/12/10 09:54:39;;;;;;;;;23.33;16.67;;;;;;;;5078707;28;11860;-73
2021/12/10 09:57:15;;;;;;;;;19.67;19.67;;;;;;;;5079996;28;11446;-73
2021/12/10 09:59:41;;;;;;;;;21.33;18.33;;;;;;;;5078954;28;12276;-72
2021/12/10 10:02:08;;;;;;;;;25.33;25.33;;;;;;;;5061018;28;14984;-73
2021/12/10 10:04:35;;;;;;;;;30.67;27.00;;;;;;;;5079011;28;9699;-72
2021/12/10 10:07:08;;;;;;;;;25.67;24.00;;;;;;;;5078607;28;13530;-74
2021/12/10 10:09:34;;;;;;;;;24.00;21.67;;;;;;;;5078821;28;11148;-71
2021/12/10 10:12:19;;;;;;;;;28.00;25.67;;;;;;;;5078588;28;11354;-71
2021/12/10 10:14:45;;;;;;;;;25.00;22.00;;;;;;;;5059691;28;12155;-73
2021/12/10 10:17:11;;;;;;;;;28.00;25.33;;;;;;;;5079338;28;11382;-71
2021/12/10 10:19:37;;;;;;;;;25.33;22.33;;;;;;;;5079158;28;11621;-72
2021/12/10 10:22:05;;;;;;;;;21.67;21.67;;;;;;;;5079064;28;10442;-72
2021/12/10 10:24:31;;;;;;;;;27.67;26.67;;;;;;;;5078955;28;13353;-72
2021/12/10 10:26:59;;;;;;;;;36.33;32.33;;;;;;;;5079674;28;8803;-71
2021/12/10 10:29:27;;;;;;;;;37.67;32.00;;;;;;;;5077877;28;13299;-70
2021/12/10 10:31:57;;;;;;;;;46.67;33.67;;;;;;;;5078775;28;11470;-72
2021/12/10 10:34:25;;;;;;;;;21.00;19.00;;;;;;;;5060190;28;16362;-72
2021/12/10 10:36:50;;;;;;;;;23.67;22.67;;;;;;;;5079243;28;13299;-72
2021/12/10 10:39:19;;;;;;;;;31.00;24.33;;;;;;;;5079370;28;12524;-72
2021/12/10 10:41:46;;;;;;;;;23.00;19.33;;;;;;;;5078150;28;13661;-72
2021/12/10 10:44:12;;;;;;;;;15.67;14.00;;;;;;;;5078322;28;10881;-72
2021/12/10 10:46:37;;;;;;;;;19.33;15.33;;;;;;;;5077905;28;13623;-71
2021/12/10 10:49:04;;;;;;;;;15.00;13.67;;;;;;;;5077652;28;11375;-72
2021/12/10 10:51:41;;;;;;;;;20.33;14.00;;;;;;;;5078766;28;11527;-71
2021/12/10 10:54:09;;;;;;;;;15.33;13.67;;;;;;;;5079089;28;13465;-72
2021/12/10 10:56:38;;;;;;;;;12.67;12.67;;;;;;;;5078451;28;14748;-72
2021/12/10 10:59:10;;;;;;;;;11.67;11.67;;;;;;;;5077845;28;12123;-72
2021/12/10 11:01:41;;;;;;;;;10.67;10.33;;;;;;;;5078611;28;8899;-71
2021/12/10 11:04:28;;;;;;;;;30.33;30.33;;;;;;;;5078357;28;11704;-72
2021/12/10 11:06:57;;;;;;;;;32.33;28.67;;;;;;;;5077804;28;12725;-71
2021/12/10 11:09:24;;;;;;;;;34.67;32.33;;;;;;;;5078004;28;12284;-72
2021/12/10 11:11:53;;;;;;;;;38.00;34.00;;;;;;;;5079019;28;12353;-72
2021/12/10 11:14:44;;;;;;;;;43.33;37.00;;;;;;;;5060023;28;13759;-71
2021/12/10 11:17:33;;;;;;;;;41.00;38.67;;;;;;;;5075621;28;12301;-71
2021/12/10 11:20:13;;;;;;;;;45.33;41.00;;;;;;;;5064048;28;12423;-72
2021/12/10 11:23:04;;;;;;;;;47.00;39.33;;;;;;;;5078101;28;12611;-75
2021/12/10 11:25:34;;;;;;;;;39.00;36.67;;;;;;;;5072575;28;12889;-73
2021/12/10 11:28:12;;;;;;;;;43.67;38.67;;;;;;;;5078573;28;13434;-73
2021/12/10 11:30:49;;;;;;;;;57.00;42.00;;;;;;;;5077888;28;12351;-74
2021/12/10 11:33:17;;;;;;;;;52.67;42.33;;;;;;;;5077909;28;13471;-79
2021/12/10 11:35:44;;;;;;;;;49.67;42.00;;;;;;;;5078745;28;11804;-73
2021/12/10 11:38:16;;;;;;;;;58.75;43.25;;;;;;;;5078095;28;13394;-74
2021/12/10 11:41:01;;;;;;;;;56.00;45.00;;;;;;;;5078860;28;13332;-73
2021/12/10 11:48:43;;;;;;;;;57.25;45.00;;;;;;;;5078493;28;11320;-74
2021/12/10 11:51:10;;;;;;;;;45.33;41.33;;;;;;;;5078667;28;11511;-74
2021/12/10 11:53:38;;;;;;;;;42.00;38.00;;;;;;;;5078380;28;13363;-72
2021/12/10 11:56:09;;;;;;;;;58.00;48.50;;;;;;;;5077220;28;12894;-73
2021/12/10 11:58:35;;;;;;;;;60.00;48.25;;;;;;;;5078080;28;13383;-71
2021/12/10 12:01:02;;;;;;;;;58.25;47.50;;;;;;;;5077332;28;13229;-72
2021/12/10 12:03:34;;;;;;;;;52.33;44.00;;;;;;;;5077715;28;13383;-73
2021/12/10 12:06:01;;;;;;;;;47.00;40.00;;;;;;;;5077158;28;12592;-72
2021/12/10 12:08:26;;;;;;;;;52.00;44.00;;;;;;;;5076878;28;12426;-74
2021/12/10 12:10:55;;;;;;;;;57.00;43.33;;;;;;;;5074791;28;10634;-73
2021/12/10 12:13:26;;;;;;;;;48.00;42.00;;;;;;;;5076887;28;11648;-74
2021/12/10 12:15:51;;;;;;;;;58.67;44.67;;;;;;;;5077680;28;13878;-73
2021/12/10 12:18:25;;;;;;;;;53.33;44.33;;;;;;;;5077668;28;14298;-76
2021/12/10 12:20:53;;;;;;;;;56.50;47.00;;;;;;;;5078320;28;11554;-78
2021/12/10 12:26:16;;;;;;;;;56.50;44.25;;;;;;;;5077282;28;11436;-73
2021/12/10 12:28:46;;;;;;;;;62.25;49.50;;;;;;;;5078075;28;10457;-78
2021/12/10 12:31:13;;;;;;;;;59.25;47.25;;;;;;;;5078844;28;13770;-82
2021/12/10 12:33:50;;;;;;;;;60.00;47.50;;;;;;;;5080372;28;13702;-81
2021/12/10 12:36:15;;;;;;;;;56.25;45.25;;;;;;;;5077725;28;13601;-81
2021/12/10 12:38:43;;;;;;;;;59.00;49.00;;;;;;;;5079176;28;13402;-82
2021/12/10 12:41:12;;;;;;;;;60.75;49.75;;;;;;;;5083252;28;11469;-83
2021/12/10 12:43:38;;;;;;;;;61.25;50.25;;;;;;;;5084672;28;13382;-84
2021/12/10 12:46:05;;;;;;;;;57.00;47.00;;;;;;;;5085618;28;11534;-84
2021/12/10 12:48:31;;;;;;;;;54.75;46.00;;;;;;;;5084911;28;13555;-82
2021/12/10 12:51:01;;;;;;;;;49.00;42.25;;;;;;;;5084614;28;10974;-83
2021/12/10 12:53:30;;;;;;;;;40.50;36.25;;;;;;;;5084847;28;14519;-84
2021/12/10 12:55:57;;;;;;;;;40.00;37.67;;;;;;;;5100950;28;11685;-84
2021/12/10 12:58:31;;;;;;;;;45.67;40.33;;;;;;;;5088434;28;10427;-84
2021/12/10 13:00:57;;;;;;;;;45.33;41.00;;;;;;;;5085228;28;13551;-83
2021/12/10 13:03:31;;;;;;;;;44.33;39.67;;;;;;;;5085604;28;10415;-82
2021/12/10 13:06:18;;;;;;;;;40.00;37.67;;;;;;;;5067497;28;15685;-82
2021/12/10 13:08:45;;;;;;;;;43.00;34.00;;;;;;;;5093277;28;10471;-83
2021/12/10 13:11:13;;;;;;;;;42.00;35.00;;;;;;;;5098510;28;13031;-80
2021/12/10 13:13:51;;;;;;;;;35.33;31.33;;;;;;;;5098324;28;9138;-87
2021/12/10 13:16:29;;;;;;;;;35.67;35.00;;;;;;;;5098030;28;13575;-84
2021/12/10 13:18:55;;;;;;;;;32.00;31.00;;;;;;;;5098874;28;10437;-82
2021/12/10 13:21:20;;;;;;;;;41.00;34.33;;;;;;;;5101263;28;10860;-84
2021/12/10 13:23:45;;;;;;;;;40.33;35.33;;;;;;;;5088375;28;13293;-85
2021/12/10 13:26:11;;;;;;;;;39.67;34.67;;;;;;;;5086649;28;10433;-86
2021/12/10 13:29:44;;;;;;;;;34.00;30.00;;;;;;;;5163502;27;1437671;-81
2021/12/10 13:32:10;;;;;;;;;39.33;35.67;;;;;;;;5181066;27;23995;-79
2021/12/10 13:34:36;;;;;;;;;37.33;33.33;;;;;;;;5198392;27;11449;-79
2021/12/10 13:37:03;;;;;;;;;29.67;28.00;;;;;;;;5199284;27;11684;-79
2021/12/10 13:39:28;;;;;;;;;41.33;35.67;;;;;;;;5198888;27;13300;-78
2021/12/10 13:41:55;;;;;;;;;39.67;38.33;;;;;;;;5198191;27;13884;-79
2021/12/10 13:46:54;;;;;;;;;38.33;34.33;;;;;;;;5198447;27;13289;-80
2021/12/10 13:49:20;;;;;;;;;38.00;34.00;;;;;;;;5199251;27;13206;-79
2021/12/10 13:51:48;;;;;;;;;35.33;29.67;;;;;;;;5200288;27;8789;-82
2021/12/10 13:54:21;;;;;;;;;40.67;37.33;;;;;;;;5198853;27;12574;-76
2021/12/10 13:56:49;;;;;;;;;37.00;34.00;;;;;;;;5198892;27;13641;-78
2021/12/10 13:59:19;;;;;;;;;40.67;34.00;;;;;;;;5199507;27;13756;-81
2021/12/10 14:01:46;;;;;;;;;42.00;34.33;;;;;;;;5199770;27;10265;-82
2021/12/10 14:04:11;;;;;;;;;39.00;34.33;;;;;;;;5200340;27;12187;-83
2021/12/10 14:06:39;;;;;;;;;29.33;25.33;;;;;;;;5200087;27;8773;-83
2021/12/10 14:09:22;;;;;;;;;41.00;37.33;;;;;;;;5198891;27;12342;-83
2021/12/10 14:12:08;;;;;;;;;42.00;36.33;;;;;;;;5199764;27;12239;-83
2021/12/10 14:14:35;;;;;;;;;38.67;35.33;;;;;;;;5200108;27;8805;-83
2021/12/10 14:17:03;;;;;;;;;33.67;33.00;;;;;;;;5200037;27;12277;-83
2021/12/10 14:19:40;;;;;;;;;44.33;36.33;;;;;;;;5179983;27;13915;-84
2021/12/10 14:22:07;;;;;;;;;42.33;34.67;;;;;;;;5198874;27;13521;-77
2021/12/10 14:24:37;;;;;;;;;42.33;36.00;;;;;;;;5198153;27;11513;-82
2021/12/10 14:27:05;;;;;;;;;39.67;37.00;;;;;;;;5198640;27;9342;-80
2021/12/10 14:29:31;;;;;;;;;36.00;31.67;;;;;;;;5197918;27;12436;-77
2021/12/10 14:31:56;;;;;;;;;36.33;35.00;;;;;;;;5198737;27;11613;-79
2021/12/10 14:34:23;;;;;;;;;28.00;28.00;;;;;;;;5198427;27;10352;-81
2021/12/10 14:37:09;;;;;;;;;34.67;31.33;;;;;;;;5198305;27;12585;-78
2021/12/10 14:39:35;;;;;;;;;36.67;33.33;;;;;;;;5192507;27;13530;-72
2021/12/10 14:42:08;;;;;;;;;34.67;31.33;;;;;;;;5183850;27;8774;-72
2021/12/10 14:44:34;;;;;;;;;33.33;30.67;;;;;;;;5184457;27;8777;-72
2021/12/10 14:47:14;;;;;;;;;22.00;18.33;;;;;;;;5184001;27;11409;-72